Time;durP1;ratioP1;P1;durP2;ratioP2;P2;SDS_P1;SDS_P2;PMS_P1;PMS_P2;Temp;Humidity;BMP_temperature;BMP_pressure;BME280_temperature;BME280_humidity;BME280_pressure;Samples;Min_cycle;Max_cycle;Signal;HPM_P1;HPM_P2
2023/03/13 00:04:52;;;;;;;40.90;7.90;;;;;;;7.81;100.00;100046.06;10406929;28;20490;-75
2023/03/13 00:09:52;;;;;;;34.47;7.78;;;;;;;7.70;100.00;100019.59;10405757;28;20112;-75
2023/03/13 00:14:53;;;;;;;32.05;7.80;;;;;;;7.70;100.00;100008.66;10371503;28;20037;-74
2023/03/13 00:19:54;;;;;;;39.92;9.73;;;;;;;7.71;100.00;100004.84;10389221;28;20128;-67
2023/03/13 00:24:55;;;;;;;43.92;10.43;;;;;;;7.60;100.00;99998.38;10375586;28;20096;-73
2023/03/13 00:29:55;;;;;;;34.45;8.75;;;;;;;7.62;100.00;99995.41;10410226;28;20033;-72
2023/03/13 00:34:56;;;;;;;38.30;9.35;;;;;;;7.55;100.00;99981.09;10434641;28;20029;-73
2023/03/13 00:39:56;;;;;;;47.60;10.73;;;;;;;7.52;100.00;99957.75;10429365;28;20035;-72
2023/03/13 00:44:56;;;;;;;42.35;9.45;;;;;;;7.43;100.00;99951.91;10419032;28;20052;-74
2023/03/13 00:49:57;;;;;;;37.72;8.82;;;;;;;7.44;100.00;99939.88;10407311;28;20030;-74
2023/03/13 00:54:57;;;;;;;46.83;11.65;;;;;;;7.42;100.00;99919.28;10403893;28;20044;-73
2023/03/13 00:59:58;;;;;;;33.47;10.82;;;;;;;7.30;100.00;99889.34;10389074;28;20041;-73
2023/03/13 01:04:58;;;;;;;29.75;9.45;;;;;;;7.42;100.00;99903.72;10406734;28;20037;-74
2023/03/13 01:09:59;;;;;;;37.17;7.65;;;;;;;7.38;100.00;99874.34;10406435;28;20049;-74
2023/03/13 01:14:59;;;;;;;45.15;11.70;;;;;;;7.37;100.00;99861.75;10405129;28;20033;-74
2023/03/13 01:20:00;;;;;;;42.30;9.10;;;;;;;7.38;100.00;99847.81;10388579;28;20181;-74
2023/03/13 01:25:00;;;;;;;39.15;9.30;;;;;;;7.32;100.00;99828.81;10411123;28;20052;-72
2023/03/13 01:30:01;;;;;;;35.20;7.47;;;;;;;7.43;100.00;99823.19;10367250;28;20086;-74
2023/03/13 01:35:01;;;;;;;26.55;7.53;;;;;;;7.51;100.00;99830.13;10380800;28;20034;-74
2023/03/13 01:40:02;;;;;;;32.75;8.05;;;;;;;7.44;100.00;99810.31;10396226;28;20108;-75
2023/03/13 01:45:03;;;;;;;37.10;7.95;;;;;;;7.50;100.00;99809.28;10395705;28;20059;-73
2023/03/13 01:50:03;;;;;;;35.30;8.85;;;;;;;7.45;100.00;99790.91;10411334;28;20041;-74
2023/03/13 01:55:12;;;;;;;37.75;9.00;;;;;;;7.52;100.00;99781.66;10377271;28;20663;-73
2023/03/13 02:00:15;;;;;;;31.38;8.75;;;;;;;7.40;100.00;99746.22;10392785;28;20088;-74
2023/03/13 02:05:16;;;;;;;32.85;7.15;;;;;;;7.48;100.00;99745.72;10393710;28;20048;-73
2023/03/13 02:10:16;;;;;;;37.58;9.85;;;;;;;7.44;100.00;99723.53;10394281;28;20060;-74
2023/03/13 02:15:18;;;;;;;28.30;7.60;;;;;;;7.44;100.00;99701.63;10378251;28;20049;-74
2023/03/13 02:20:22;;;;;;;40.28;8.10;;;;;;;7.46;100.00;99687.66;10377426;28;20026;-74
2023/03/13 02:25:22;;;;;;;45.55;10.40;;;;;;;7.52;100.00;99669.34;10378475;28;20053;-73
2023/03/13 02:30:23;;;;;;;37.38;9.40;;;;;;;7.58;100.00;99649.94;10411284;28;20193;-74
2023/03/13 02:35:23;;;;;;;29.42;9.60;;;;;;;7.53;100.00;99608.03;10375909;28;20049;-73
2023/03/13 02:40:27;;;;;;;25.15;7.47;;;;;;;7.56;100.00;99610.22;10392900;28;20034;-73
2023/03/13 02:45:27;;;;;;;32.40;8.35;;;;;;;7.47;100.00;99591.56;10392650;28;20609;-74
2023/03/13 02:50:27;;;;;;;39.70;10.27;;;;;;;7.46;100.00;99581.72;10409875;28;20042;-73
2023/03/13 02:55:36;;;;;;;29.23;9.73;;;;;;;7.50;100.00;99578.41;10374636;28;20037;-74
2023/03/13 03:00:37;;;;;;;38.63;10.85;;;;;;;7.48;100.00;99563.09;10392983;28;20060;-74
2023/03/13 03:05:37;;;;;;;26.30;8.50;;;;;;;7.59;100.00;99561.22;10375829;28;20041;-74
2023/03/13 03:10:38;;;;;;;29.63;9.32;;;;;;;7.54;100.00;99522.03;10374898;28;20052;-74
2023/03/13 03:15:38;;;;;;;22.65;8.98;;;;;;;7.66;100.00;99531.66;10391589;28;20052;-75
2023/03/13 03:20:39;;;;;;;19.95;7.50;;;;;;;7.59;100.00;99489.19;10430304;28;20049;-74
2023/03/13 03:25:39;;;;;;;15.80;8.02;;;;;;;7.73;100.00;99504.03;10407058;28;20074;-74
2023/03/13 03:30:40;;;;;;;11.85;7.03;;;;;;;7.72;100.00;99485.94;10406890;28;20197;-75
2023/03/13 03:35:40;;;;;;;15.98;6.90;;;;;;;7.79;100.00;99475.56;10391226;28;20033;-75
2023/03/13 03:40:41;;;;;;;12.07;6.57;;;;;;;7.83;100.00;99460.22;10407952;28;20048;-75
2023/03/13 03:45:41;;;;;;;14.50;6.95;;;;;;;7.94;100.00;99460.22;10407036;28;20087;-77
2023/03/13 03:50:42;;;;;;;11.32;6.55;;;;;;;7.83;100.00;99427.34;10406893;28;20045;-76
2023/03/13 03:55:43;;;;;;;16.40;6.72;;;;;;;7.99;100.00;99450.09;10390070;28;20037;-76
2023/03/13 04:00:44;;;;;;;12.00;6.82;;;;;;;8.06;100.00;99436.13;10389914;28;20283;-74
2023/03/13 04:05:44;;;;;;;12.20;6.82;;;;;;;8.07;100.00;99415.84;10414718;28;20099;-76
2023/03/13 04:10:45;;;;;;;7.97;6.15;;;;;;;7.88;100.00;99386.25;10429548;28;20452;-76
2023/03/13 04:15:46;;;;;;;10.73;6.28;;;;;;;8.02;100.00;99380.22;10414146;28;20033;-74
2023/03/13 04:20:46;;;;;;;10.38;6.47;;;;;;;8.22;100.00;99398.56;10421433;28;20048;-76
2023/03/13 04:25:47;;;;;;;13.13;7.28;;;;;;;8.21;100.00;99395.03;10388166;28;20069;-74
2023/03/13 04:30:47;;;;;;;12.73;6.88;;;;;;;8.29;100.00;99391.72;10391424;28;20037;-75
2023/03/13 04:35:48;;;;;;;13.73;7.38;;;;;;;8.29;100.00;99368.97;10408780;28;20041;-76
2023/03/13 04:40:48;;;;;;;10.20;7.50;;;;;;;8.45;100.00;99378.00;10408878;28;20490;-77
2023/03/13 04:45:53;;;;;;;12.18;7.03;;;;;;;8.54;100.00;99370.88;10389547;28;20061;-77
2023/03/13 04:50:53;;;;;;;10.38;6.97;;;;;;;8.61;100.00;99354.13;10390393;28;20045;-76
2023/03/13 04:55:54;;;;;;;12.85;7.75;;;;;;;8.76;100.00;99342.28;10356435;28;20064;-74
2023/03/13 05:00:55;;;;;;;13.32;7.50;;;;;;;8.77;100.00;99332.97;10378059;28;20054;-75
2023/03/13 05:05:56;;;;;;;13.40;7.63;;;;;;;8.98;100.00;99345.47;10388341;28;20046;-77
2023/03/13 05:10:56;;;;;;;11.38;8.15;;;;;;;9.06;100.00;99320.19;10363326;28;20053;-75
2023/03/13 05:15:57;;;;;;;11.52;7.95;;;;;;;9.19;100.00;99326.16;10368674;28;20037;-76
2023/03/13 05:20:57;;;;;;;15.80;8.55;;;;;;;9.16;100.00;99322.06;10373416;28;20375;-76
2023/03/13 05:25:58;;;;;;;15.35;8.35;;;;;;;9.33;100.00;99309.88;10355607;28;20058;-75
2023/03/13 05:30:59;;;;;;;11.95;8.45;;;;;;;9.34;100.00;99286.81;10370566;28;20046;-76
2023/03/13 05:35:59;;;;;;;14.10;9.25;;;;;;;9.48;100.00;99288.63;10352637;28;20038;-70
2023/03/13 05:41:00;;;;;;;16.25;10.40;;;;;;;9.60;100.00;99287.44;10372436;28;20042;-75
2023/03/13 05:46:00;;;;;;;14.77;10.10;;;;;;;9.66;100.00;99283.56;10337523;28;20033;-77
2023/03/13 05:51:01;;;;;;;17.92;10.98;;;;;;;9.72;100.00;99260.41;10372491;28;20546;-78
2023/03/13 05:56:01;;;;;;;16.13;10.73;;;;;;;9.95;100.00;99285.50;10372172;28;20061;-78
2023/03/13 06:01:09;;;;;;;14.70;10.40;;;;;;;10.04;100.00;99276.31;10369225;28;20103;-76
2023/03/13 06:06:09;;;;;;;13.50;10.75;;;;;;;10.21;100.00;99273.16;10398810;28;20045;-77
2023/03/13 06:11:10;;;;;;;13.68;8.63;;;;;;;10.21;100.00;99256.66;10331606;28;20048;-77
2023/03/13 06:16:10;;;;;;;12.88;8.98;;;;;;;10.25;100.00;99265.97;10378417;28;20053;-79
2023/03/13 06:21:11;;;;;;;9.85;7.60;;;;;;;10.33;100.00;99277.44;10336933;28;20042;-76
2023/03/13 06:26:11;;;;;;;10.55;8.20;;;;;;;10.33;100.00;99260.94;10371277;28;20037;-76
2023/03/13 06:31:12;;;;;;;12.60;9.32;;;;;;;10.34;100.00;99246.09;10352336;28;20037;-71
2023/03/13 06:36:12;;;;;;;13.10;9.45;;;;;;;10.40;100.00;99272.44;10392775;28;20037;-75
2023/03/13 06:41:13;;;;;;;14.63;9.45;;;;;;;10.42;100.00;99264.72;10408812;28;20084;-82
2023/03/13 06:46:19;;;;;;;14.40;9.90;;;;;;;10.41;100.00;99241.03;10392014;28;20057;-79
2023/03/13 06:51:20;;;;;;;14.90;8.70;;;;;;;10.45;100.00;99220.09;10375861;28;20045;-76
2023/03/13 06:56:21;;;;;;;9.98;8.77;;;;;;;10.58;100.00;99224.03;10376571;28;20045;-77
2023/03/13 07:01:21;;;;;;;11.85;8.90;;;;;;;10.66;100.00;99226.94;10360733;28;20041;-77
2023/03/13 07:06:22;;;;;;;14.57;10.95;;;;;;;10.74;100.00;99232.94;10391208;28;20091;-77
2023/03/13 07:11:23;;;;;;;15.88;10.60;;;;;;;10.66;100.00;99215.13;10410497;28;20048;-76
2023/03/13 07:16:24;;;;;;;17.30;10.07;;;;;;;10.73;100.00;99220.28;10391786;28;20038;-73
2023/03/13 07:21:24;;;;;;;15.07;10.38;;;;;;;10.76;100.00;99208.69;10408323;28;20037;-77
2023/03/13 07:26:25;;;;;;;17.23;9.23;;;;;;;10.82;100.00;99224.00;10391209;28;20068;-77
2023/03/13 07:31:25;;;;;;;17.15;8.88;;;;;;;10.84;100.00;99189.56;10373165;28;20069;-79
2023/03/13 07:36:26;;;;;;;21.67;8.85;;;;;;;10.85;100.00;99195.88;10357831;28;20037;-73
2023/03/13 07:41:26;;;;;;;14.35;8.75;;;;;;;10.83;100.00;99211.88;10390439;28;20025;-69
2023/03/13 07:46:27;;;;;;;22.98;9.85;;;;;;;10.65;100.00;99197.00;10357008;28;20064;-77
2023/03/13 07:51:27;;;;;;;20.52;8.73;;;;;;;10.83;100.00;99225.63;10335091;28;20041;-73
2023/03/13 07:56:28;;;;;;;16.02;9.52;;;;;;;10.50;100.00;99159.50;10368275;28;20033;-74
2023/03/13 08:01:28;;;;;;;10.20;8.00;;;;;;;10.87;100.00;99218.44;10366047;28;20046;-76
2023/03/13 08:06:30;;;;;;;22.38;8.68;;;;;;;10.89;100.00;99200.50;10315381;28;20125;-77
2023/03/13 08:11:30;;;;;;;14.00;7.82;;;;;;;10.87;100.00;99215.66;10372144;28;20059;-75
2023/03/13 08:16:33;;;;;;;11.70;7.93;;;;;;;10.89;100.00;99230.81;10405782;28;20124;-75
2023/03/13 08:21:34;;;;;;;13.73;8.82;;;;;;;10.73;100.00;99232.13;10406436;28;20044;-74
2023/03/13 08:26:36;;;;;;;13.82;8.27;;;;;;;10.84;100.00;99236.38;10405400;28;20112;-78
2023/03/13 08:31:38;;;;;;;7.93;6.88;;;;;;;10.83;100.00;99236.66;10370983;28;20054;-72
2023/03/13 08:36:38;;;;;;;6.75;6.03;;;;;;;10.64;100.00;99200.84;10413250;28;20037;-75
2023/03/13 08:41:42;;;;;;;9.90;5.80;;;;;;;10.86;100.00;99255.34;10413498;28;20033;-74
2023/03/13 08:46:42;;;;;;;6.20;5.60;;;;;;;10.90;100.00;99226.09;10413516;28;20050;-73
2023/03/13 08:51:43;;;;;;;5.28;4.50;;;;;;;11.08;100.00;99211.53;10382030;28;20108;-73
2023/03/13 08:56:44;;;;;;;5.75;3.65;;;;;;;11.16;100.00;99176.97;10372312;28;20096;-73
2023/03/13 09:01:44;;;;;;;4.75;3.53;;;;;;;11.41;100.00;99191.44;10361652;28;20125;-75
2023/03/13 09:06:44;;;;;;;4.22;2.80;;;;;;;11.43;100.00;99201.06;10318024;28;20073;-77
2023/03/13 09:11:45;;;;;;;5.45;3.17;;;;;;;11.61;100.00;99196.59;10301549;28;20038;-74
2023/03/13 09:16:47;;;;;;;5.88;3.25;;;;;;;11.76;100.00;99203.81;10354404;28;20069;-73
2023/03/13 09:21:48;;;;;;;4.07;3.25;;;;;;;11.82;100.00;99179.69;10350840;28;20053;-68
2023/03/13 09:26:48;;;;;;;7.57;3.28;;;;;;;12.06;100.00;99196.13;10351791;28;20046;-75
2023/03/13 09:31:49;;;;;;;5.85;2.60;;;;;;;12.06;100.00;99179.56;10409574;28;20033;-76
2023/03/13 09:36:49;;;;;;;4.93;2.60;;;;;;;12.04;100.00;99170.78;10339713;28;20054;-73
2023/03/13 09:41:54;;;;;;;6.13;3.10;;;;;;;11.88;100.00;99159.19;10348975;28;20084;-73
2023/03/13 09:47:10;;;;;;;5.40;3.50;;;;;;;11.75;100.00;99187.56;10388768;28;20037;-73
2023/03/13 09:52:24;;;;;;;7.13;3.88;;;;;;;11.56;100.00;99165.56;10396174;28;20096;-74
2023/03/13 09:57:34;;;;;;;9.57;4.43;;;;;;;11.65;100.00;99185.81;10395398;28;20409;-75
2023/03/13 10:02:35;;;;;;;7.07;3.40;;;;;;;11.58;100.00;99163.34;10393391;28;20609;-75
2023/03/13 10:07:36;;;;;;;5.63;3.22;;;;;;;11.77;100.00;99194.41;10371056;28;20049;-74
2023/03/13 10:12:40;;;;;;;5.90;2.40;;;;;;;12.63;100.00;99169.00;10397484;28;20048;-72
2023/03/13 10:17:40;;;;;;;8.82;3.40;;;;;;;13.05;100.00;99152.31;10395546;28;20038;-73
2023/03/13 10:22:42;;;;;;;13.68;2.58;;;;;;;13.05;100.00;99139.31;10410497;28;20037;-73
2023/03/13 10:27:52;;;;;;;5.35;1.88;;;;;;;12.90;100.00;99076.16;10363514;28;20041;-73
2023/03/13 10:32:57;;;;;;;10.95;2.20;;;;;;;13.20;100.00;99145.59;10358805;28;20102;-72
2023/03/13 10:38:24;;;;;;;5.32;1.75;;;;;;;13.00;100.00;99125.63;10354920;28;20096;-75
2023/03/13 10:43:25;;;;;;;9.18;1.98;;;;;;;13.15;100.00;99115.31;10350749;28;20599;-73
2023/03/13 10:48:28;;;;;;;8.02;2.35;;;;;;;13.27;100.00;99101.72;10352112;28;20037;-75
2023/03/13 10:53:29;;;;;;;9.93;3.17;;;;;;;13.35;100.00;99123.13;10368989;28;20049;-74
2023/03/13 10:58:33;;;;;;;10.70;2.78;;;;;;;13.30;100.00;99106.69;10366285;28;20053;-75
2023/03/13 11:03:33;;;;;;;6.70;2.10;;;;;;;13.33;100.00;99114.31;10335795;28;20117;-74
2023/03/13 11:08:35;;;;;;;11.80;2.90;;;;;;;13.41;100.00;99102.50;10334515;28;20072;-73
2023/03/13 11:13:38;;;;;;;9.20;3.17;;;;;;;13.47;100.00;99111.50;10367575;28;20406;-73
2023/03/13 11:18:40;;;;;;;10.95;3.00;;;;;;;13.59;100.00;99094.31;10362136;28;20049;-74
2023/03/13 11:23:44;;;;;;;11.02;2.70;;;;;;;13.62;100.00;99085.38;10383648;28;20041;-75
2023/03/13 11:29:32;;;;;;;14.32;3.35;;;;;;;13.77;100.00;99092.47;10371013;28;20418;-75
2023/03/13 11:34:38;;;;;;;10.15;2.58;;;;;;;14.02;100.00;99093.69;10352398;28;20068;-73
2023/03/13 11:40:05;;;;;;;12.32;3.08;;;;;;;14.20;100.00;99078.75;10380583;28;20113;-76
2023/03/13 11:45:24;;;;;;;8.45;2.22;;;;;;;14.29;100.00;99074.03;10386045;28;20046;-77
2023/03/13 11:50:28;;;;;;;11.35;2.15;;;;;;;14.41;100.00;99078.13;10385742;28;20068;-74
2023/03/13 11:56:16;;;;;;;5.45;2.50;;;;;;;14.49;100.00;99071.75;10385007;28;20041;-73
2023/03/13 12:01:18;;;;;;;4.10;1.90;;;;;;;14.43;100.00;99059.25;10342598;28;20073;-75
2023/03/13 12:06:33;;;;;;;7.55;2.90;;;;;;;14.61;100.00;99038.75;10340948;28;20034;-75
2023/03/13 12:11:48;;;;;;;4.30;1.50;;;;;;;14.75;100.00;99035.81;10382556;28;20128;-75
2023/03/13 12:16:55;;;;;;;6.40;2.05;;;;;;;14.68;100.00;99032.72;10343640;28;20062;-73
2023/03/13 12:21:56;;;;;;;3.17;1.30;;;;;;;15.08;100.00;99008.38;10366257;28;20497;-75
2023/03/13 12:27:01;;;;;;;2.97;1.33;;;;;;;15.04;100.00;99001.84;10369259;28;20088;-74
2023/03/13 12:32:06;;;;;;;3.55;1.33;;;;;;;15.59;100.00;98993.84;10354234;28;20033;-77
2023/03/13 12:37:25;;;;;;;8.45;1.55;;;;;;;15.51;100.00;98984.41;10358507;28;20025;-75
2023/03/13 12:42:43;;;;;;;5.50;1.52;;;;;;;15.22;100.00;99010.13;10387821;28;20060;-73
2023/03/13 12:48:13;;;;;;;6.05;1.67;;;;;;;15.71;100.00;98985.63;10364443;28;20042;-74
2023/03/13 12:53:34;;;;;;;4.40;1.23;;;;;;;16.36;100.00;98957.63;10364727;28;20050;-73
2023/03/13 12:58:52;;;;;;;5.32;1.63;;;;;;;16.33;100.00;98959.91;10362768;28;20052;-74
2023/03/13 13:03:54;;;;;;;10.68;1.80;;;;;;;15.41;100.00;98968.16;10405081;28;20063;-73
2023/03/13 13:09:06;;;;;;;10.55;2.08;;;;;;;14.68;100.00;98958.75;10364776;28;20042;-76
2023/03/13 13:14:15;;;;;;;7.25;2.10;;;;;;;15.75;100.00;98950.56;10385064;28;20041;-71
2023/03/13 13:19:39;;;;;;;10.38;2.13;;;;;;;16.37;100.00;98951.72;10408741;28;20029;-72
2023/03/13 13:24:47;;;;;;;8.35;1.90;;;;;;;16.09;100.00;98918.16;10407559;28;20109;-68
2023/03/13 13:29:52;;;;;;;9.93;2.70;;;;;;;16.22;100.00;98914.25;10396169;28;20049;-73
2023/03/13 13:35:05;;;;;;;6.47;2.10;;;;;;;16.29;100.00;98928.44;10355106;28;20409;-73
2023/03/13 13:40:16;;;;;;;9.70;2.50;;;;;;;16.21;100.00;98932.09;10372975;28;20050;-74
2023/03/13 13:45:16;;;;;;;15.82;2.35;;;;;;;15.97;100.00;98918.88;10373246;28;20065;-75
2023/03/13 13:50:23;;;;;;;9.75;2.22;;;;;;;16.32;100.00;98905.50;10370380;28;20038;-75
2023/03/13 13:55:33;;;;;;;14.77;3.30;;;;;;;16.23;100.00;98896.47;10345658;28;20046;-75
2023/03/13 14:00:41;;;;;;;10.85;2.22;;;;;;;16.54;100.00;98895.19;10362195;28;20089;-74
2023/03/13 14:05:42;;;;;;;14.63;3.42;;;;;;;16.33;100.00;98895.25;10407859;28;20052;-75
2023/03/13 14:10:50;;;;;;;15.18;2.78;;;;;;;16.52;100.00;98884.41;10395169;28;20042;-73
2023/03/13 14:15:52;;;;;;;12.50;2.92;;;;;;;15.98;100.00;98901.09;10412420;28;20562;-75
2023/03/13 14:20:53;;;;;;;16.30;3.65;;;;;;;16.11;100.00;98913.06;10394666;28;20046;-74
2023/03/13 14:25:53;;;;;;;14.32;3.15;;;;;;;16.14;100.00;98892.94;10395064;28;20108;-75
2023/03/13 14:30:55;;;;;;;17.40;3.83;;;;;;;15.82;100.00;98875.91;10409844;28;20072;-74
2023/03/13 14:35:56;;;;;;;11.80;3.65;;;;;;;16.23;100.00;98912.31;10392281;28;20033;-74
2023/03/13 14:40:57;;;;;;;21.33;4.75;;;;;;;16.39;100.00;98918.03;10376680;28;20060;-75
2023/03/13 14:45:58;;;;;;;15.60;2.97;;;;;;;16.40;100.00;98889.13;10408814;28;20033;-74
2023/03/13 14:51:09;;;;;;;11.95;2.95;;;;;;;16.10;100.00;98901.16;10410107;28;20044;-75
2023/03/13 14:56:10;;;;;;;16.85;3.25;;;;;;;15.99;100.00;98913.81;10394356;28;20038;-75
2023/03/13 15:01:24;;;;;;;17.70;3.55;;;;;;;15.78;100.00;98911.03;10411126;28;20044;-74
2023/03/13 15:06:25;;;;;;;14.82;3.67;;;;;;;15.85;100.00;98894.63;10406939;28;20038;-75
2023/03/13 15:11:31;;;;;;;15.15;3.42;;;;;;;15.37;100.00;98889.56;10357107;28;20061;-73
2023/03/13 15:16:31;;;;;;;17.33;3.53;;;;;;;15.58;100.00;98881.25;10390296;28;20482;-74
2023/03/13 15:21:32;;;;;;;17.20;3.30;;;;;;;14.97;100.00;98873.28;10409490;28;20033;-73
2023/03/13 15:26:32;;;;;;;13.70;4.05;;;;;;;14.76;100.00;98864.88;10392267;28;20548;-74
2023/03/13 15:31:33;;;;;;;13.45;3.05;;;;;;;14.72;100.00;98875.81;10364970;28;20030;-73
2023/03/13 15:36:33;;;;;;;28.10;4.32;;;;;;;14.30;100.00;98868.06;10367005;28;20052;-72
2023/03/13 15:41:34;;;;;;;20.20;4.60;;;;;;;14.68;100.00;98875.66;10346597;28;20030;-74
2023/03/13 15:46:34;;;;;;;22.92;4.85;;;;;;;14.72;100.00;98884.94;10350238;28;20053;-75
2023/03/13 15:51:35;;;;;;;20.85;3.80;;;;;;;14.54;100.00;98844.56;10365676;28;20037;-73
2023/03/13 15:56:36;;;;;;;14.98;4.10;;;;;;;14.64;100.00;98848.97;10363874;28;20038;-69
2023/03/13 16:01:36;;;;;;;24.88;4.45;;;;;;;14.71;100.00;98829.88;10356382;28;20069;-74
2023/03/13 16:06:37;;;;;;;20.67;3.70;;;;;;;14.70;100.00;98825.50;10361690;28;20253;-72
2023/03/13 16:11:37;;;;;;;19.90;3.90;;;;;;;14.58;100.00;98826.19;10349556;28;20041;-73
2023/03/13 16:16:38;;;;;;;29.05;3.33;;;;;;;14.00;100.00;98841.41;10367895;28;20049;-75
2023/03/13 16:21:41;;;;;;;17.38;3.20;;;;;;;13.70;100.00;98844.00;10368384;28;20477;-73
2023/03/13 16:26:42;;;;;;;23.52;5.05;;;;;;;13.41;100.00;98844.63;10367603;28;20044;-72
2023/03/13 16:31:42;;;;;;;24.20;4.32;;;;;;;13.10;100.00;98854.63;10419856;28;20045;-73
2023/03/13 16:36:43;;;;;;;15.88;3.85;;;;;;;12.96;100.00;98839.28;10404675;28;20034;-72
2023/03/13 16:41:43;;;;;;;30.67;4.68;;;;;;;12.96;100.00;98858.63;10387845;28;20060;-73
2023/03/13 16:46:44;;;;;;;17.50;4.45;;;;;;;12.79;100.00;98842.81;10387052;28;20057;-73
2023/03/13 16:51:45;;;;;;;20.00;3.92;;;;;;;12.64;100.00;98842.09;10389383;28;20043;-73
2023/03/13 16:56:46;;;;;;;24.67;3.92;;;;;;;12.57;100.00;98841.75;10391711;28;20038;-73
2023/03/13 17:01:46;;;;;;;26.08;4.30;;;;;;;12.29;100.00;98828.09;10375101;28;20053;-71
2023/03/13 17:06:47;;;;;;;31.48;5.68;;;;;;;12.24;100.00;98838.50;10391068;28;20072;-75
2023/03/13 17:11:47;;;;;;;26.75;4.13;;;;;;;12.01;100.00;98835.75;10393544;28;20046;-77
2023/03/13 17:16:48;;;;;;;19.35;3.88;;;;;;;11.85;100.00;98828.94;10371283;28;20063;-73
2023/03/13 17:21:48;;;;;;;23.85;6.72;;;;;;;11.79;100.00;98847.53;10429579;28;20037;-73
2023/03/13 17:26:49;;;;;;;30.50;5.10;;;;;;;11.77;100.00;98858.06;10408971;28;20124;-74
2023/03/13 17:31:49;;;;;;;18.75;3.20;;;;;;;11.64;100.00;98840.44;10418009;28;20048;-74
2023/03/13 17:36:50;;;;;;;25.80;4.78;;;;;;;11.22;100.00;98781.06;10433748;28;20033;-75
2023/03/13 17:41:50;;;;;;;23.45;4.93;;;;;;;11.48;100.00;98834.47;10450616;28;20033;-75
2023/03/13 17:46:51;;;;;;;20.02;4.38;;;;;;;11.32;100.00;98816.63;10418600;28;20056;-74
2023/03/13 17:51:51;;;;;;;19.60;4.63;;;;;;;11.36;100.00;98823.16;10436364;28;20044;-75
2023/03/13 17:56:52;;;;;;;20.50;4.13;;;;;;;11.26;100.00;98818.69;10418694;28;20049;-72
2023/03/13 18:01:52;;;;;;;22.80;4.10;;;;;;;11.24;100.00;98833.91;10453150;28;20040;-75
2023/03/13 18:06:53;;;;;;;16.02;3.67;;;;;;;11.23;100.00;98832.28;10439707;28;20037;-76
2023/03/13 18:11:53;;;;;;;20.63;5.63;;;;;;;11.19;100.00;98858.81;10452224;28;20041;-75
2023/03/13 18:16:56;;;;;;;19.73;3.92;;;;;;;11.01;100.00;98819.25;10451922;28;20107;-73
2023/03/13 18:21:56;;;;;;;22.77;4.35;;;;;;;11.09;100.00;98838.59;10434527;28;20502;-73
2023/03/13 18:26:57;;;;;;;20.05;4.78;;;;;;;10.96;100.00;98844.94;10433066;28;20101;-76
2023/03/13 18:31:59;;;;;;;26.75;5.75;;;;;;;10.85;100.00;98840.75;10433597;28;20032;-75
2023/03/13 18:37:02;;;;;;;26.27;4.20;;;;;;;10.70;100.00;98847.38;10407535;28;20041;-75
2023/03/13 18:42:03;;;;;;;29.10;6.00;;;;;;;10.54;100.00;98838.59;10382773;28;20413;-75
2023/03/13 18:47:27;;;;;;;12.82;3.60;;;;;;;10.46;100.00;98842.06;10390427;28;20063;-75
2023/03/13 18:52:27;;;;;;;27.58;6.03;;;;;;;10.45;100.00;98827.47;10449648;28;20147;-76
2023/03/13 18:57:28;;;;;;;17.48;4.13;;;;;;;10.40;100.00;98815.78;10448277;28;20033;-75
2023/03/13 19:02:28;;;;;;;26.52;5.15;;;;;;;10.50;100.00;98826.59;10414978;28;20044;-75
2023/03/13 19:07:29;;;;;;;16.92;4.40;;;;;;;10.52;100.00;98827.06;10444826;28;20037;-75
2023/03/13 19:12:29;;;;;;;21.73;4.13;;;;;;;10.54;100.00;98835.03;10429526;28;20100;-74
2023/03/13 19:17:31;;;;;;;22.70;4.22;;;;;;;10.41;100.00;98822.91;10413372;28;20059;-74
2023/03/13 19:22:31;;;;;;;23.58;4.70;;;;;;;10.41;100.00;98822.91;10412599;28;20090;-74
2023/03/13 19:27:32;;;;;;;27.27;4.93;;;;;;;10.31;100.00;98812.88;10419960;28;20060;-75
2023/03/13 19:32:32;;;;;;;27.83;4.93;;;;;;;10.23;100.00;98821.81;10409409;28;20025;-75
2023/03/13 19:37:33;;;;;;;21.85;4.63;;;;;;;10.03;100.00;98801.81;10401491;28;20033;-74
2023/03/13 19:42:34;;;;;;;23.10;4.90;;;;;;;10.03;100.00;98801.00;10392825;28;20037;-74
2023/03/13 19:47:34;;;;;;;23.75;5.00;;;;;;;9.99;100.00;98791.72;10450217;28;20041;-74
2023/03/13 19:52:35;;;;;;;24.02;4.88;;;;;;;9.98;100.00;98784.59;10429757;28;20063;-74
2023/03/13 19:57:35;;;;;;;25.77;5.13;;;;;;;9.93;100.00;98780.00;10412835;28;20052;-74
2023/03/13 20:02:36;;;;;;;20.83;4.65;;;;;;;9.80;100.00;98803.59;10430871;28;20052;-74
2023/03/13 20:07:36;;;;;;;24.50;4.18;;;;;;;9.60;100.00;98787.41;10400902;28;20152;-74
2023/03/13 20:12:38;;;;;;;28.48;5.35;;;;;;;9.47;100.00;98794.50;10407869;28;20067;-74
2023/03/13 20:17:38;;;;;;;21.38;5.00;;;;;;;9.35;100.00;98803.16;10437750;28;20049;-75
2023/03/13 20:22:39;;;;;;;28.13;4.55;;;;;;;9.22;100.00;98792.91;10412324;28;20033;-75
2023/03/13 20:27:39;;;;;;;26.15;6.63;;;;;;;9.14;100.00;98782.63;10411047;28;20477;-75
2023/03/13 20:32:39;;;;;;;23.48;5.68;;;;;;;9.07;100.00;98792.03;10418547;28;20087;-75
2023/03/13 20:37:40;;;;;;;28.27;5.60;;;;;;;8.97;100.00;98785.84;10446913;28;20045;-74
2023/03/13 20:42:42;;;;;;;24.85;5.38;;;;;;;8.86;100.00;98791.47;10452330;28;20528;-74
2023/03/13 20:47:43;;;;;;;32.72;6.20;;;;;;;8.82;100.00;98797.84;10438159;28;20045;-74
2023/03/13 20:52:43;;;;;;;25.98;5.13;;;;;;;8.84;100.00;98795.63;10437183;28;20037;-74
2023/03/13 20:57:44;;;;;;;21.75;5.10;;;;;;;8.90;100.00;98799.94;10420701;28;20025;-75
2023/03/13 21:02:45;;;;;;;37.22;5.75;;;;;;;8.86;100.00;98779.69;10436976;28;20033;-75
2023/03/13 21:07:46;;;;;;;24.88;6.55;;;;;;;8.56;100.00;98740.56;10437489;28;20396;-75
2023/03/13 21:12:47;;;;;;;34.50;7.47;;;;;;;8.81;100.00;98777.81;10449721;28;20381;-74
2023/03/13 21:17:48;;;;;;;25.00;5.55;;;;;;;8.56;100.00;98740.56;10437384;28;20091;-74
2023/03/13 21:22:48;;;;;;;21.55;4.80;;;;;;;8.81;100.00;98769.59;10435463;28;20075;-69
2023/03/13 21:27:49;;;;;;;18.77;6.53;;;;;;;8.85;100.00;98756.13;10427536;28;20063;-74
2023/03/13 21:32:49;;;;;;;17.65;4.13;;;;;;;8.79;100.00;98735.34;10449573;28;20091;-76
2023/03/13 21:37:50;;;;;;;20.45;4.25;;;;;;;8.95;100.00;98747.75;10431760;28;20044;-74
2023/03/13 21:42:50;;;;;;;32.35;6.18;;;;;;;8.61;100.00;98691.13;10407208;28;20535;-72
2023/03/13 21:47:51;;;;;;;22.95;5.07;;;;;;;8.94;100.00;98726.06;10435182;28;20047;-76
2023/03/13 21:52:51;;;;;;;22.48;4.50;;;;;;;8.92;100.00;98723.63;10413889;28;20033;-76
2023/03/13 21:57:52;;;;;;;30.58;6.22;;;;;;;8.85;100.00;98731.41;10396444;28;20075;-76
2023/03/13 22:02:52;;;;;;;37.20;8.88;;;;;;;8.74;100.00;98727.97;10432935;28;20048;-76
2023/03/13 22:07:54;;;;;;;30.83;6.05;;;;;;;8.54;100.00;98712.63;10449176;28;20045;-75
2023/03/13 22:12:54;;;;;;;31.58;6.95;;;;;;;8.59;100.00;98755.59;10447507;28;20048;-76
2023/03/13 22:17:55;;;;;;;26.50;5.65;;;;;;;8.62;100.00;98753.09;10417324;28;20033;-76
2023/03/13 22:22:56;;;;;;;28.15;5.55;;;;;;;8.68;100.00;98723.66;10431788;28;20037;-74
2023/03/13 22:27:56;;;;;;;33.78;5.68;;;;;;;8.71;100.00;98705.81;10417334;28;20033;-74
2023/03/13 22:32:57;;;;;;;23.75;5.13;;;;;;;8.82;100.00;98712.78;10430853;28;20256;-75
2023/03/13 22:37:57;;;;;;;27.52;7.65;;;;;;;8.82;100.00;98693.56;10436186;28;20083;-74
2023/03/13 22:42:58;;;;;;;28.70;6.07;;;;;;;8.80;100.00;98688.38;10448772;28;20037;-74
2023/03/13 22:48:04;;;;;;;23.77;4.57;;;;;;;8.71;100.00;98661.94;10431571;28;20044;-74
2023/03/13 22:53:05;;;;;;;;;;;;;;;8.88;100.00;98689.66;10412578;28;20033;-75
2023/03/13 22:58:06;;;;;;;25.18;4.60;;;;;;;8.78;100.00;98676.06;10444306;28;20007;-75
2023/03/13 23:03:06;;;;;;;22.45;4.32;;;;;;;8.72;100.00;98674.53;10448918;28;20033;-75
2023/03/13 23:08:07;;;;;;;23.55;4.90;;;;;;;8.67;100.00;98661.69;10355615;28;20517;-75